Marriott, Utah
Current Conditions -  °F | °C
As of 2:53 PM on Wednesday 28 Jan 2015 (Local Time) from KOGD Reporting Station
Overcast Overcast  
Wind Chill: 46°   Ceiling: 4200
Heat Index: 46°   Visibility: 10mi
Dew Point: 36°   Wind: 3mph
Humidity: 68%   Direction: 230°SW
Pressure: 30.3"   Gusts: NA
Location:  41.2701°N, 112.135°W
Report Text: KOGD 282153Z 23003KT 10SM BKN042 OVC055 08/02 A3030 RMK AO2 SLP250 T00780022
Loading
Personal Weather Stations






























Interactive Weather Map New forecast layout! Learn more

10-Day Weather Forecast

Advertisements
Track Severe Weather on mobile